Time;durP1;ratioP1;P1;durP2;ratioP2;P2;SDS_P1;SDS_P2;PMS_P1;PMS_P2;Temp;Humidity;BMP_temperature;BMP_pressure;BME280_temperature;BME280_humidity;BME280_pressure;Samples;Min_cycle;Max_cycle;Signal;HPM_P1;HPM_P2
2021/04/18 00:01:22;;;;;;;11.93;5.30;;;;;;;;;;5069941;28;20216;-69
2021/04/18 00:04:06;;;;;;;9.87;5.27;;;;;;;;;;5069842;28;20210;-69
2021/04/18 00:06:51;;;;;;;8.13;5.30;;;;;;;;;;5070482;28;20754;-69
2021/04/18 00:09:35;;;;;;;10.93;5.43;;;;;;;;;;5073347;28;20213;-70
2021/04/18 00:12:20;;;;;;;9.77;5.67;;;;;;;;;;5073493;28;20205;-69
2021/04/18 00:15:05;;;;;;;13.57;6.13;;;;;;;;;;5072738;28;20767;-69
2021/04/18 00:17:50;;;;;;;11.43;5.53;;;;;;;;;;5073093;28;20289;-69
2021/04/18 00:20:35;;;;;;;10.57;5.83;;;;;;;;;;5069670;28;20280;-69
2021/04/18 00:23:20;;;;;;;10.70;5.77;;;;;;;;;;5073403;28;20224;-69
2021/04/18 00:26:04;;;;;;;11.40;7.22;;;;;;;;;;5061998;28;20476;-69
2021/04/18 00:28:49;;;;;;;9.70;6.57;;;;;;;;;;5072920;28;20691;-70
2021/04/18 00:31:33;;;;;;;13.13;6.63;;;;;;;;;;5073544;28;20569;-69
2021/04/18 00:34:19;;;;;;;11.00;6.77;;;;;;;;;;5073238;28;20207;-69
2021/04/18 00:37:04;;;;;;;10.73;5.83;;;;;;;;;;5072500;28;20277;-69
2021/04/18 00:39:48;;;;;;;11.75;7.32;;;;;;;;;;5071211;28;20450;-69
2021/04/18 00:42:33;;;;;;;11.67;6.67;;;;;;;;;;5053427;28;20207;-70
2021/04/18 00:45:18;;;;;;;9.47;6.50;;;;;;;;;;5053187;28;20268;-69
2021/04/18 00:48:03;;;;;;;10.00;6.20;;;;;;;;;;5052955;28;20343;-69
2021/04/18 00:50:48;;;;;;;13.07;6.47;;;;;;;;;;5073067;28;20245;-69
2021/04/18 00:53:32;;;;;;;12.17;6.57;;;;;;;;;;5072190;28;20299;-69
2021/04/18 00:56:17;;;;;;;12.23;7.20;;;;;;;;;;5072285;28;20225;-69
2021/04/18 00:59:02;;;;;;;14.07;7.27;;;;;;;;;;5063241;28;20207;-69
2021/04/18 01:01:46;;;;;;;11.33;6.70;;;;;;;;;;5052675;28;20210;-70
2021/04/18 01:04:30;;;;;;;15.17;7.37;;;;;;;;;;5066536;28;20267;-70
2021/04/18 01:07:16;;;;;;;14.40;6.70;;;;;;;;;;5067406;28;20205;-69
2021/04/18 01:10:00;;;;;;;10.53;6.80;;;;;;;;;;5072902;28;20197;-69
2021/04/18 01:12:45;;;;;;;11.93;7.40;;;;;;;;;;5067369;28;20439;-69
2021/04/18 01:15:30;;;;;;;12.10;6.37;;;;;;;;;;5072289;28;20271;-69
2021/04/18 01:18:14;;;;;;;12.60;6.67;;;;;;;;;;5064948;28;20303;-70
2021/04/18 01:21:04;;;;;;;11.67;6.43;;;;;;;;;;5052286;28;20276;-70
2021/04/18 01:23:49;;;;;;;10.37;6.17;;;;;;;;;;5052036;28;20252;-70
2021/04/18 01:26:34;;;;;;;10.38;7.15;;;;;;;;;;5051662;28;20416;-69
2021/04/18 01:29:19;;;;;;;11.10;6.37;;;;;;;;;;5052417;28;20214;-69
2021/04/18 01:32:03;;;;;;;13.63;6.20;;;;;;;;;;5052270;28;20206;-69
2021/04/18 01:34:47;;;;;;;10.37;6.43;;;;;;;;;;5053290;28;20648;-69
2021/04/18 01:37:33;;;;;;;13.03;5.87;;;;;;;;;;5053017;28;20559;-70
2021/04/18 01:40:18;;;;;;;9.87;6.13;;;;;;;;;;5051850;28;20277;-69
2021/04/18 01:43:03;;;;;;;10.90;6.27;;;;;;;;;;5052398;28;20298;-70
2021/04/18 01:45:48;;;;;;;9.40;6.30;;;;;;;;;;5054396;28;20265;-69
2021/04/18 01:48:34;;;;;;;11.47;6.23;;;;;;;;;;5063839;28;20708;-69
2021/04/18 01:51:18;;;;;;;11.60;6.20;;;;;;;;;;5051611;28;20271;-70
2021/04/18 01:54:04;;;;;;;9.37;6.20;;;;;;;;;;5051741;28;20256;-70
2021/04/18 01:56:48;;;;;;;10.57;6.57;;;;;;;;;;5056927;28;20262;-70
2021/04/18 01:59:33;;;;;;;10.53;6.50;;;;;;;;;;5071101;28;20303;-69
2021/04/18 02:02:17;;;;;;;9.40;7.30;;;;;;;;;;5070377;28;20414;-69
2021/04/18 02:05:02;;;;;;;11.87;6.80;;;;;;;;;;5070797;28;20236;-70
2021/04/18 02:07:47;;;;;;;10.00;6.63;;;;;;;;;;5070406;28;20255;-69
2021/04/18 02:10:32;;;;;;;8.73;6.30;;;;;;;;;;5071391;28;20722;-70
2021/04/18 02:13:16;;;;;;;11.83;6.33;;;;;;;;;;5070546;28;20686;-69
2021/04/18 02:16:01;;;;;;;10.82;8.15;;;;;;;;;;5064870;28;20932;-69
2021/04/18 02:18:45;;;;;;;11.90;7.67;;;;;;;;;;5062268;28;20224;-70
2021/04/18 02:21:30;;;;;;;13.20;7.43;;;;;;;;;;5066740;28;20231;-70
2021/04/18 02:24:14;;;;;;;12.80;7.80;;;;;;;;;;5051407;28;20344;-69
2021/04/18 02:27:00;;;;;;;12.83;7.43;;;;;;;;;;5050978;28;20273;-70
2021/04/18 02:29:44;;;;;;;10.97;7.70;;;;;;;;;;5050755;28;20610;-70
2021/04/18 02:32:29;;;;;;;13.60;8.43;;;;;;;;;;5057720;28;20595;-69
2021/04/18 02:35:16;;;;;;;12.80;8.10;;;;;;;;;;5071097;28;20220;-70
2021/04/18 02:38:00;;;;;;;16.30;9.10;;;;;;;;;;5069895;28;20211;-69
2021/04/18 02:40:45;;;;;;;13.80;8.73;;;;;;;;;;5070868;28;20240;-70
2021/04/18 02:43:30;;;;;;;13.60;9.50;;;;;;;;;;5070445;28;20200;-70
2021/04/18 02:46:14;;;;;;;16.53;9.93;;;;;;;;;;5063325;28;20220;-69
2021/04/18 02:49:02;;;;;;;14.30;9.37;;;;;;;;;;5054559;28;20606;-69
2021/04/18 02:51:47;;;;;;;18.50;11.88;;;;;;;;;;5069605;28;20423;-69
2021/04/18 02:54:31;;;;;;;18.37;9.50;;;;;;;;;;5070520;28;20288;-69
2021/04/18 02:57:16;;;;;;;13.57;8.40;;;;;;;;;;5069637;28;20205;-69
2021/04/18 03:00:01;;;;;;;8.67;7.37;;;;;;;;;;5070757;28;20239;-70
2021/04/18 03:02:45;;;;;;;9.67;7.70;;;;;;;;;;5069624;28;20334;-69
2021/04/18 03:05:30;;;;;;;12.48;9.13;;;;;;;;;;5049872;28;21114;-70
2021/04/18 03:08:14;;;;;;;12.33;8.03;;;;;;;;;;5062559;28;20204;-70
2021/04/18 03:10:59;;;;;;;12.33;8.27;;;;;;;;;;5070522;28;20334;-69
2021/04/18 03:13:44;;;;;;;16.03;8.13;;;;;;;;;;5050639;28;20700;-70
2021/04/18 03:16:29;;;;;;;10.67;8.00;;;;;;;;;;5053166;28;20303;-69
2021/04/18 03:19:13;;;;;;;12.37;7.87;;;;;;;;;;5054071;28;20691;-69
2021/04/18 03:21:58;;;;;;;15.67;8.23;;;;;;;;;;5050674;28;20296;-69
2021/04/18 03:24:43;;;;;;;12.87;7.70;;;;;;;;;;5060907;28;20765;-69
2021/04/18 03:27:27;;;;;;;16.83;10.03;;;;;;;;;;5066546;28;20233;-69
2021/04/18 03:30:12;;;;;;;12.03;9.03;;;;;;;;;;5061147;28;20232;-69
2021/04/18 03:32:57;;;;;;;10.80;7.90;;;;;;;;;;5070425;28;20208;-69
2021/04/18 03:35:42;;;;;;;15.67;8.60;;;;;;;;;;5050297;28;20268;-70
2021/04/18 03:38:26;;;;;;;16.08;9.50;;;;;;;;;;5049948;28;20463;-69
2021/04/18 03:41:11;;;;;;;14.87;9.10;;;;;;;;;;5066736;28;20235;-69
2021/04/18 03:43:55;;;;;;;14.77;10.07;;;;;;;;;;5074277;28;20314;-69
2021/04/18 03:46:40;;;;;;;14.83;9.93;;;;;;;;;;5072650;28;20259;-70
2021/04/18 03:49:25;;;;;;;19.43;11.30;;;;;;;;;;5074183;28;20256;-69
2021/04/18 03:52:09;;;;;;;17.90;13.77;;;;;;;;;;5073896;28;20422;-69
2021/04/18 03:54:54;;;;;;;17.20;13.03;;;;;;;;;;5073255;28;20271;-69
2021/04/18 03:57:39;;;;;;;18.30;14.53;;;;;;;;;;5072349;28;20235;-69
2021/04/18 04:00:23;;;;;;;19.87;13.77;;;;;;;;;;5068648;28;20225;-69
2021/04/18 04:03:08;;;;;;;21.10;13.30;;;;;;;;;;5061693;28;20207;-69
2021/04/18 04:05:53;;;;;;;19.30;13.20;;;;;;;;;;5061557;28;20221;-70
2021/04/18 04:08:37;;;;;;;20.03;13.10;;;;;;;;;;5054668;28;20715;-70
2021/04/18 04:11:22;;;;;;;18.47;13.07;;;;;;;;;;5057006;28;20267;-70
2021/04/18 04:14:07;;;;;;;17.03;11.87;;;;;;;;;;5072756;28;20205;-69
2021/04/18 04:16:51;;;;;;;13.77;10.93;;;;;;;;;;5066475;28;20288;-70
2021/04/18 04:19:36;;;;;;;14.17;9.83;;;;;;;;;;5072233;28;20212;-70
2021/04/18 04:22:21;;;;;;;14.17;9.80;;;;;;;;;;5055516;28;20281;-69
2021/04/18 04:25:06;;;;;;;16.43;10.73;;;;;;;;;;5063444;28;20254;-69
2021/04/18 04:27:51;;;;;;;16.30;12.65;;;;;;;;;;5052627;28;20846;-69
2021/04/18 04:30:35;;;;;;;18.97;12.30;;;;;;;;;;5054075;28;20571;-70
2021/04/18 04:33:20;;;;;;;14.87;9.33;;;;;;;;;;5061102;28;20618;-69
2021/04/18 04:36:05;;;;;;;17.17;9.37;;;;;;;;;;5064530;28;20220;-70
2021/04/18 04:38:50;;;;;;;14.17;8.83;;;;;;;;;;5071071;28;20845;-69
2021/04/18 04:41:35;;;;;;;16.27;10.90;;;;;;;;;;5055155;28;20419;-70
2021/04/18 04:44:19;;;;;;;17.13;9.70;;;;;;;;;;5068181;28;20243;-70
2021/04/18 04:47:04;;;;;;;16.37;9.20;;;;;;;;;;5065243;28;20273;-69
2021/04/18 04:49:48;;;;;;;13.80;9.33;;;;;;;;;;5062329;28;20212;-69
2021/04/18 04:52:33;;;;;;;15.63;9.10;;;;;;;;;;5061447;28;20694;-70
2021/04/18 04:55:18;;;;;;;16.37;10.33;;;;;;;;;;5071002;28;20224;-70
2021/04/18 04:58:03;;;;;;;16.40;10.20;;;;;;;;;;5071736;28;20208;-69
2021/04/18 05:00:47;;;;;;;14.53;9.77;;;;;;;;;;5060386;28;20737;-69
2021/04/18 05:03:32;;;;;;;12.77;9.80;;;;;;;;;;5059939;28;20207;-70
2021/04/18 05:06:16;;;;;;;14.57;10.27;;;;;;;;;;5063832;28;20220;-70
2021/04/18 05:09:01;;;;;;;14.50;11.17;;;;;;;;;;5055574;28;20387;-69
2021/04/18 05:11:46;;;;;;;17.87;11.37;;;;;;;;;;5069822;28;20266;-70
2021/04/18 05:14:30;;;;;;;15.83;12.80;;;;;;;;;;5052602;28;20252;-70
2021/04/18 05:17:15;;;;;;;18.30;11.77;;;;;;;;;;5063565;28;20196;-69
2021/04/18 05:19:59;;;;;;;47.37;10.80;;;;;;;;;;5062511;28;20254;-70
2021/04/18 05:22:44;;;;;;;20.40;9.40;;;;;;;;;;5067262;28;20204;-70
2021/04/18 05:25:29;;;;;;;26.00;9.53;;;;;;;;;;5075523;22;20278;-73
2021/04/18 05:28:14;;;;;;;17.87;9.20;;;;;;;;;;5072063;28;20255;-73
2021/04/18 05:30:58;;;;;;;14.17;12.13;;;;;;;;;;5070385;28;20427;-73
2021/04/18 05:33:43;;;;;;;11.00;10.10;;;;;;;;;;5071537;28;20440;-73
2021/04/18 05:36:27;;;;;;;9.77;8.63;;;;;;;;;;5048180;28;20209;-73
2021/04/18 05:39:12;;;;;;;10.00;8.27;;;;;;;;;;5032075;28;20229;-73
2021/04/18 05:41:56;;;;;;;9.33;8.43;;;;;;;;;;5038976;28;20205;-73
2021/04/18 05:44:42;;;;;;;8.67;7.87;;;;;;;;;;5043631;28;20589;-73
2021/04/18 05:47:26;;;;;;;13.33;8.17;;;;;;;;;;5050482;28;20209;-73
2021/04/18 05:50:11;;;;;;;9.10;8.20;;;;;;;;;;5036725;28;20245;-73
2021/04/18 05:52:55;;;;;;;12.57;9.83;;;;;;;;;;5045519;28;20221;-72
2021/04/18 05:55:40;;;;;;;15.67;10.57;;;;;;;;;;5050215;28;20221;-73
2021/04/18 05:58:25;;;;;;;18.37;10.60;;;;;;;;;;5050592;28;20252;-73
2021/04/18 06:01:10;;;;;;;21.03;10.20;;;;;;;;;;5036602;28;20719;-73
2021/04/18 06:03:55;;;;;;;26.83;12.87;;;;;;;;;;5040261;28;20434;-73
2021/04/18 06:06:40;;;;;;;27.20;10.73;;;;;;;;;;5049046;28;20443;-73
2021/04/18 06:09:24;;;;;;;23.70;10.63;;;;;;;;;;5044163;28;20244;-73
2021/04/18 06:12:09;;;;;;;20.07;8.40;;;;;;;;;;5031464;28;20281;-73
2021/04/18 06:14:54;;;;;;;17.43;8.27;;;;;;;;;;5043129;28;20822;-73
2021/04/18 06:17:39;;;;;;;24.48;8.73;;;;;;;;;;5041859;28;20416;-71
2021/04/18 06:20:24;;;;;;;17.87;8.57;;;;;;;;;;5045728;28;20222;-73
2021/04/18 06:23:08;;;;;;;9.33;7.83;;;;;;;;;;5051268;28;20246;-73
2021/04/18 06:25:52;;;;;;;7.93;7.13;;;;;;;;;;5050803;28;20239;-74
2021/04/18 06:28:37;;;;;;;7.80;7.13;;;;;;;;;;5051454;28;20211;-74
2021/04/18 06:31:21;;;;;;;7.93;7.13;;;;;;;;;;5051329;28;20205;-74
2021/04/18 06:34:07;;;;;;;7.90;7.10;;;;;;;;;;5051423;28;20566;-72
2021/04/18 06:36:52;;;;;;;8.03;7.33;;;;;;;;;;5050464;28;20583;-73
2021/04/18 06:39:36;;;;;;;10.63;8.23;;;;;;;;;;5046797;28;20719;-71
2021/04/18 06:42:22;;;;;;;10.03;9.03;;;;;;;;;;5031310;28;20696;-71
2021/04/18 06:45:08;;;;;;;11.10;9.10;;;;;;;;;;5046827;28;20237;-71
2021/04/18 06:47:53;;;;;;;12.23;9.53;;;;;;;;;;5043110;28;20209;-73
2021/04/18 06:50:38;;;;;;;10.10;9.03;;;;;;;;;;5031392;28;20213;-73
2021/04/18 06:53:23;;;;;;;12.13;8.70;;;;;;;;;;5030677;28;20206;-74
2021/04/18 06:56:08;;;;;;;11.17;9.13;;;;;;;;;;5030644;28;20214;-73
2021/04/18 06:58:55;;;;;;;10.03;9.03;;;;;;;;;;5030809;28;20252;-75
2021/04/18 07:01:40;;;;;;;11.93;9.43;;;;;;;;;;5030986;28;20925;-73
2021/04/18 07:04:24;;;;;;;9.77;8.87;;;;;;;;;;5031039;28;20284;-75
2021/04/18 07:07:10;;;;;;;10.57;9.57;;;;;;;;;;5029993;28;20921;-75
2021/04/18 07:09:54;;;;;;;10.47;9.37;;;;;;;;;;5031468;28;20205;-74
2021/04/18 07:12:39;;;;;;;14.67;11.33;;;;;;;;;;5031634;28;20201;-74
2021/04/18 07:15:35;;;;;;;14.20;11.00;;;;;;;;;;5030488;28;20221;-74
2021/04/18 07:18:34;;;;;;;13.60;9.70;;;;;;;;;;5034728;28;20198;-73
2021/04/18 07:21:18;;;;;;;11.00;9.77;;;;;;;;;;5035387;28;20234;-74
2021/04/18 07:24:05;;;;;;;10.03;9.03;;;;;;;;;;5035598;28;20739;-73
2021/04/18 07:26:55;;;;;;;10.03;9.03;;;;;;;;;;5035365;28;20231;-73
2021/04/18 07:29:39;;;;;;;9.23;8.33;;;;;;;;;;5034714;28;20726;-73
2021/04/18 07:32:25;;;;;;;9.60;8.47;;;;;;;;;;5034957;28;20215;-73
2021/04/18 07:35:29;;;;;;;8.30;7.20;;;;;;;;;;5034711;28;20235;-74
2021/04/18 07:38:15;;;;;;;9.07;8.27;;;;;;;;;;5033319;28;20477;-73
2021/04/18 07:41:18;;;;;;;7.83;6.90;;;;;;;;;;5034258;28;20317;-73
2021/04/18 07:44:03;;;;;;;8.07;6.50;;;;;;;;;;5034781;28;20722;-73
2021/04/18 07:46:48;;;;;;;8.73;6.73;;;;;;;;;;5033910;28;20249;-73
2021/04/18 07:49:32;;;;;;;7.17;6.47;;;;;;;;;;5034602;28;20202;-73
2021/04/18 07:52:17;;;;;;;9.25;7.05;;;;;;;;;;5033321;28;20972;-73
2021/04/18 07:55:02;;;;;;;8.87;7.10;;;;;;;;;;5034298;28;20271;-74
2021/04/18 07:57:48;;;;;;;8.70;6.57;;;;;;;;;;5033831;28;20209;-73
2021/04/18 08:00:32;;;;;;;7.47;6.07;;;;;;;;;;5033894;28;20224;-73
2021/04/18 08:03:18;;;;;;;10.60;6.77;;;;;;;;;;5034098;28;20301;-74
2021/04/18 08:06:04;;;;;;;10.07;6.13;;;;;;;;;;5037732;28;20205;-70
2021/04/18 08:08:49;;;;;;;8.30;6.17;;;;;;;;;;5053934;28;20674;-70
2021/04/18 08:11:33;;;;;;;8.77;6.13;;;;;;;;;;5053330;28;20266;-70
2021/04/18 08:14:19;;;;;;;10.37;6.77;;;;;;;;;;5053337;28;20614;-71
2021/04/18 08:17:04;;;;;;;9.10;6.17;;;;;;;;;;5053112;28;20208;-71
2021/04/18 08:19:59;;;;;;;9.33;6.43;;;;;;;;;;5053772;28;20704;-73
2021/04/18 08:22:59;;;;;;;8.57;6.60;;;;;;;;;;5053796;28;20206;-71
2021/04/18 08:26:01;;;;;;;9.47;6.70;;;;;;;;;;5053104;28;20228;-72
2021/04/18 08:29:05;;;;;;;8.43;7.07;;;;;;;;;;5052920;28;20209;-72
2021/04/18 08:32:08;;;;;;;9.10;7.27;;;;;;;;;;5053403;28;20613;-72
2021/04/18 08:35:09;;;;;;;9.40;7.00;;;;;;;;;;5053411;28;20671;-70
2021/04/18 08:38:13;;;;;;;8.37;7.30;;;;;;;;;;5052689;28;20285;-72
2021/04/18 08:41:03;;;;;;;8.57;7.30;;;;;;;;;;5052045;28;20444;-73
2021/04/18 08:43:47;;;;;;;8.63;6.50;;;;;;;;;;5053050;28;20240;-70
2021/04/18 08:46:32;;;;;;;7.60;6.60;;;;;;;;;;5052247;28;20198;-68
2021/04/18 08:49:33;;;;;;;10.53;7.67;;;;;;;;;;5053176;28;20201;-70
2021/04/18 08:52:21;;;;;;;6.90;5.40;;;;;;;;;;5052957;28;20249;-71
2021/04/18 08:55:07;;;;;;;7.53;6.37;;;;;;;;;;5052644;28;20290;-71
2021/04/18 08:57:52;;;;;;;9.43;6.67;;;;;;;;;;5052348;28;20198;-70
2021/04/18 09:00:38;;;;;;;6.70;6.00;;;;;;;;;;5052491;28;20217;-71
2021/04/18 09:03:23;;;;;;;9.07;6.23;;;;;;;;;;5052556;28;20293;-71
2021/04/18 09:06:15;;;;;;;8.73;6.60;;;;;;;;;;5052211;28;20750;-71
2021/04/18 09:09:01;;;;;;;7.40;6.57;;;;;;;;;;5052461;28;20196;-71
2021/04/18 09:11:47;;;;;;;10.37;7.23;;;;;;;;;;5052696;28;20208;-71
2021/04/18 09:14:32;;;;;;;7.53;6.73;;;;;;;;;;5052589;28;20596;-70
2021/04/18 09:17:18;;;;;;;8.37;6.67;;;;;;;;;;5051882;28;20679;-70
2021/04/18 09:20:04;;;;;;;7.40;6.63;;;;;;;;;;5051976;28;20256;-69
2021/04/18 09:22:48;;;;;;;7.93;7.20;;;;;;;;;;5052452;28;20228;-70
2021/04/18 09:25:33;;;;;;;8.23;7.43;;;;;;;;;;5051990;28;20312;-70
2021/04/18 09:28:18;;;;;;;7.05;6.35;;;;;;;;;;5051084;28;20417;-71
2021/04/18 09:31:06;;;;;;;7.07;6.37;;;;;;;;;;5052398;28;20584;-70
2021/04/18 09:34:00;;;;;;;7.00;6.13;;;;;;;;;;5052257;28;20239;-71
2021/04/18 09:36:45;;;;;;;5.53;4.73;;;;;;;;;;5051788;28;20215;-71
2021/04/18 09:39:30;;;;;;;5.67;4.97;;;;;;;;;;5051096;28;20250;-71
2021/04/18 09:42:15;;;;;;;7.00;5.70;;;;;;;;;;5052118;28;20208;-71
2021/04/18 09:45:07;;;;;;;5.73;5.10;;;;;;;;;;5051961;28;20654;-72
2021/04/18 09:47:53;;;;;;;5.93;5.23;;;;;;;;;;5051605;28;20786;-75
2021/04/18 09:50:37;;;;;;;8.17;6.60;;;;;;;;;;5051741;28;20285;-73
2021/04/18 09:53:22;;;;;;;8.03;6.40;;;;;;;;;;5051531;28;20214;-78
2021/04/18 09:56:08;;;;;;;7.63;5.60;;;;;;;;;;5032558;28;20291;-78
2021/04/18 09:58:54;;;;;;;8.43;5.27;;;;;;;;;;5041654;28;20286;-78
2021/04/18 10:01:41;;;;;;;6.07;5.47;;;;;;;;;;5051958;28;20286;-78
2021/04/18 10:04:25;;;;;;;7.27;6.50;;;;;;;;;;5039166;28;20742;-73
2021/04/18 10:07:24;;;;;;;6.13;5.53;;;;;;;;;;5033300;28;20309;-73
2021/04/18 10:10:10;;;;;;;7.80;5.77;;;;;;;;;;5031518;28;20260;-72
2021/04/18 10:12:55;;;;;;;5.40;4.90;;;;;;;;;;5045035;28;20212;-72
2021/04/18 10:15:56;;;;;;;8.23;6.20;;;;;;;;;;5047335;28;20228;-71
2021/04/18 10:18:41;;;;;;;7.33;6.00;;;;;;;;;;5047872;28;20527;-72
2021/04/18 10:21:26;;;;;;;6.70;5.67;;;;;;;;;;5041805;28;20240;-72
2021/04/18 10:24:29;;;;;;;5.87;5.23;;;;;;;;;;5047432;28;20225;-73
2021/04/18 10:27:14;;;;;;;6.23;4.83;;;;;;;;;;5040526;28;20742;-73
2021/04/18 10:30:02;;;;;;;7.80;5.60;;;;;;;;;;5046580;28;20213;-73
2021/04/18 10:32:47;;;;;;;7.27;5.50;;;;;;;;;;5050849;28;20208;-73
2021/04/18 10:35:31;;;;;;;7.03;5.63;;;;;;;;;;5049389;28;20272;-73
2021/04/18 10:38:16;;;;;;;7.00;5.80;;;;;;;;;;5044717;28;20715;-73
2021/04/18 10:41:00;;;;;;;7.40;5.50;;;;;;;;;;5042795;28;20224;-73
2021/04/18 10:43:45;;;;;;;5.93;5.33;;;;;;;;;;5050082;28;20237;-72
2021/04/18 10:46:30;;;;;;;7.40;5.40;;;;;;;;;;5041785;28;20224;-71
2021/04/18 10:49:15;;;;;;;6.90;5.60;;;;;;;;;;5049028;28;20923;-73
2021/04/18 10:51:59;;;;;;;7.83;5.97;;;;;;;;;;5043180;28;20206;-70
2021/04/18 10:54:44;;;;;;;7.33;5.73;;;;;;;;;;5041594;28;20229;-71
2021/04/18 10:57:30;;;;;;;8.77;6.27;;;;;;;;;;5034983;28;20210;-70
2021/04/18 11:00:14;;;;;;;10.10;5.70;;;;;;;;;;5043706;28;20695;-70
2021/04/18 11:02:59;;;;;;;8.57;5.85;;;;;;;;;;5049306;28;20428;-69
2021/04/18 11:05:44;;;;;;;8.27;5.93;;;;;;;;;;5049617;28;20301;-70
2021/04/18 11:08:29;;;;;;;7.73;6.17;;;;;;;;;;5045806;28;20202;-71
2021/04/18 11:11:13;;;;;;;7.67;6.57;;;;;;;;;;5048577;28;20248;-71
2021/04/18 11:13:58;;;;;;;7.47;5.93;;;;;;;;;;5041704;28;20313;-70
2021/04/18 11:16:43;;;;;;;7.50;6.20;;;;;;;;;;5037687;28;20671;-71
2021/04/18 11:19:27;;;;;;;8.13;5.83;;;;;;;;;;5044553;28;20221;-69
2021/04/18 11:22:13;;;;;;;7.97;6.40;;;;;;;;;;5046457;28;20221;-69
2021/04/18 11:24:59;;;;;;;7.87;6.33;;;;;;;;;;5038989;28;20716;-69
2021/04/18 11:27:44;;;;;;;9.60;6.10;;;;;;;;;;5041412;28;20325;-70
2021/04/18 11:30:28;;;;;;;9.10;6.00;;;;;;;;;;5047347;22;20241;-68
2021/04/18 11:33:13;;;;;;;9.43;6.40;;;;;;;;;;5049277;28;20716;-69
2021/04/18 11:35:57;;;;;;;7.23;6.07;;;;;;;;;;5049913;28;20242;-69
2021/04/18 11:38:43;;;;;;;7.13;5.90;;;;;;;;;;5050626;28;20638;-69
2021/04/18 11:41:27;;;;;;;7.57;6.10;;;;;;;;;;5050337;28;20291;-69
2021/04/18 11:44:15;;;;;;;7.60;6.00;;;;;;;;;;5049729;28;20220;-68
2021/04/18 11:46:59;;;;;;;8.15;6.47;;;;;;;;;;5032859;28;20559;-68
2021/04/18 11:49:44;;;;;;;9.13;7.17;;;;;;;;;;5012282;28;20579;-68
2021/04/18 11:52:28;;;;;;;8.03;6.70;;;;;;;;;;5012567;28;20211;-68
2021/04/18 11:55:15;;;;;;;8.10;6.53;;;;;;;;;;5010526;28;20223;-68
2021/04/18 11:57:59;;;;;;;7.53;6.73;;;;;;;;;;5009840;28;20195;-68
2021/04/18 12:00:44;;;;;;;7.27;6.57;;;;;;;;;;5010411;28;20354;-68
2021/04/18 12:03:28;;;;;;;8.57;6.30;;;;;;;;;;5019787;28;20245;-68
2021/04/18 12:06:13;;;;;;;7.17;6.13;;;;;;;;;;5024514;28;20692;-68
2021/04/18 12:08:58;;;;;;;8.37;6.30;;;;;;;;;;5017510;28;20210;-68
2021/04/18 12:11:43;;;;;;;8.90;7.03;;;;;;;;;;5026803;28;20283;-68
2021/04/18 12:14:27;;;;;;;7.50;6.70;;;;;;;;;;5027049;28;20628;-69
2021/04/18 12:17:12;;;;;;;7.90;7.07;;;;;;;;;;5014155;28;20206;-68
2021/04/18 12:19:56;;;;;;;9.32;7.65;;;;;;;;;;5014493;28;20432;-68
2021/04/18 12:22:41;;;;;;;9.47;7.23;;;;;;;;;;5014656;28;20214;-68
2021/04/18 12:25:26;;;;;;;7.70;6.90;;;;;;;;;;5013944;28;20206;-69
2021/04/18 12:28:11;;;;;;;7.97;7.10;;;;;;;;;;5012950;28;20218;-69
2021/04/18 12:30:56;;;;;;;11.23;8.17;;;;;;;;;;5031843;28;20225;-68
2021/04/18 12:33:40;;;;;;;9.30;7.90;;;;;;;;;;5033287;28;20933;-68
2021/04/18 12:36:25;;;;;;;8.90;7.67;;;;;;;;;;5032677;28;20423;-68
2021/04/18 12:39:09;;;;;;;12.30;8.10;;;;;;;;;;5032896;28;20245;-68
2021/04/18 12:41:54;;;;;;;10.77;9.53;;;;;;;;;;5032914;28;20228;-68
2021/04/18 12:44:39;;;;;;;8.80;7.90;;;;;;;;;;5032930;28;20621;-68
2021/04/18 12:47:24;;;;;;;8.70;7.70;;;;;;;;;;5032664;28;20202;-69
2021/04/18 12:50:09;;;;;;;8.87;7.30;;;;;;;;;;5032693;28;20598;-69
2021/04/18 12:52:54;;;;;;;8.77;7.90;;;;;;;;;;5032968;28;20289;-68
2021/04/18 12:55:38;;;;;;;8.70;7.80;;;;;;;;;;5032943;28;20246;-68
2021/04/18 12:58:23;;;;;;;9.63;8.57;;;;;;;;;;5032827;28;20292;-68
2021/04/18 13:01:08;;;;;;;9.07;7.80;;;;;;;;;;5032783;28;20279;-68
2021/04/18 13:03:52;;;;;;;9.23;7.83;;;;;;;;;;5030788;28;20583;-68
2021/04/18 13:06:37;;;;;;;10.75;8.70;;;;;;;;;;5012318;28;20831;-68
2021/04/18 13:09:21;;;;;;;9.03;7.90;;;;;;;;;;5012637;28;20335;-67
2021/04/18 13:12:06;;;;;;;10.57;7.87;;;;;;;;;;5012526;28;20214;-68
2021/04/18 13:14:51;;;;;;;9.10;8.07;;;;;;;;;;5023119;28;20751;-68
2021/04/18 13:17:36;;;;;;;9.17;8.23;;;;;;;;;;5032169;28;20839;-68
2021/04/18 13:20:21;;;;;;;9.17;8.17;;;;;;;;;;5031887;28;20288;-68
2021/04/18 13:23:06;;;;;;;10.00;9.00;;;;;;;;;;5018606;28;20475;-67
2021/04/18 13:25:51;;;;;;;9.70;8.70;;;;;;;;;;5012453;28;20318;-67
2021/04/18 13:28:36;;;;;;;9.20;8.03;;;;;;;;;;5012353;28;20199;-67
2021/04/18 13:31:20;;;;;;;9.00;8.10;;;;;;;;;;5012040;28;20210;-67
2021/04/18 13:34:05;;;;;;;10.30;8.20;;;;;;;;;;5012196;28;20222;-67
2021/04/18 13:36:50;;;;;;;10.53;9.00;;;;;;;;;;5011727;28;20198;-67
2021/04/18 13:39:34;;;;;;;7.90;7.17;;;;;;;;;;5012727;28;20501;-67
2021/04/18 13:42:19;;;;;;;9.63;8.73;;;;;;;;;;5011913;28;20242;-67
2021/04/18 13:45:05;;;;;;;12.53;11.10;;;;;;;;;;5012112;28;20221;-68
2021/04/18 13:47:49;;;;;;;6.40;5.80;;;;;;;;;;5011833;28;20202;-67
2021/04/18 13:50:35;;;;;;;10.07;8.53;;;;;;;;;;5012255;28;20570;-67
2021/04/18 13:53:21;;;;;;;9.73;8.67;;;;;;;;;;5012154;28;20230;-67
2021/04/18 13:56:06;;;;;;;10.47;9.37;;;;;;;;;;5011532;28;20471;-68
2021/04/18 13:58:52;;;;;;;9.90;8.70;;;;;;;;;;5011976;28;20694;-68
2021/04/18 14:01:36;;;;;;;9.47;8.23;;;;;;;;;;5011714;28;20756;-68
2021/04/18 14:04:20;;;;;;;11.97;8.50;;;;;;;;;;5011607;28;20422;-67
2021/04/18 14:07:06;;;;;;;10.10;8.33;;;;;;;;;;5019872;28;20272;-67
2021/04/18 14:09:50;;;;;;;11.50;9.00;;;;;;;;;;5030283;28;20415;-67
2021/04/18 14:12:34;;;;;;;8.93;8.03;;;;;;;;;;5025464;28;20223;-67
2021/04/18 14:15:19;;;;;;;9.60;7.50;;;;;;;;;;5025666;28;20791;-67
2021/04/18 14:18:03;;;;;;;9.80;7.80;;;;;;;;;;5030714;28;20602;-67
2021/04/18 14:20:48;;;;;;;9.60;7.27;;;;;;;;;;5013273;28;20262;-67
2021/04/18 14:23:34;;;;;;;10.10;7.53;;;;;;;;;;5011570;28;20246;-68
2021/04/18 14:26:18;;;;;;;8.90;6.70;;;;;;;;;;5010446;28;20681;-68
2021/04/18 14:29:03;;;;;;;8.73;6.53;;;;;;;;;;5011546;28;20250;-69
2021/04/18 14:31:47;;;;;;;10.47;6.43;;;;;;;;;;5011963;28;20210;-68
2021/04/18 14:34:32;;;;;;;8.87;6.93;;;;;;;;;;5021657;28;20253;-68
2021/04/18 14:37:16;;;;;;;8.30;6.77;;;;;;;;;;5030117;28;20306;-69
2021/04/18 14:40:02;;;;;;;9.13;6.50;;;;;;;;;;5030444;28;20968;-69
2021/04/18 14:42:46;;;;;;;7.50;6.40;;;;;;;;;;5029726;28;20217;-69
2021/04/18 14:45:31;;;;;;;7.50;6.47;;;;;;;;;;5030432;28;20252;-68
2021/04/18 14:48:16;;;;;;;11.80;6.57;;;;;;;;;;5029901;28;20206;-69
2021/04/18 14:51:00;;;;;;;10.37;6.23;;;;;;;;;;5020920;28;20219;-68
2021/04/18 14:53:45;;;;;;;9.30;7.40;;;;;;;;;;5011415;28;20274;-69
2021/04/18 14:56:30;;;;;;;7.70;6.60;;;;;;;;;;5026211;28;20464;-69
2021/04/18 14:59:15;;;;;;;12.40;5.93;;;;;;;;;;5021203;28;20245;-68
2021/04/18 15:02:01;;;;;;;8.47;6.33;;;;;;;;;;5030399;28;20226;-68
2021/04/18 15:04:46;;;;;;;6.67;6.03;;;;;;;;;;5010986;28;20230;-68
2021/04/18 15:07:30;;;;;;;9.83;6.23;;;;;;;;;;5021996;28;20273;-68
2021/04/18 15:10:15;;;;;;;6.97;6.07;;;;;;;;;;5028931;28;20540;-68
2021/04/18 15:13:00;;;;;;;9.97;6.00;;;;;;;;;;5027352;28;20268;-68
2021/04/18 15:15:45;;;;;;;7.97;6.07;;;;;;;;;;5029988;28;20243;-68
2021/04/18 15:18:29;;;;;;;6.73;6.13;;;;;;;;;;5028468;28;20700;-68
2021/04/18 15:21:14;;;;;;;8.03;5.87;;;;;;;;;;5011838;28;20637;-68
2021/04/18 15:23:58;;;;;;;6.30;5.70;;;;;;;;;;5018410;28;20590;-69
2021/04/18 15:26:43;;;;;;;8.25;6.65;;;;;;;;;;5028912;28;20565;-69
2021/04/18 15:29:28;;;;;;;9.33;6.10;;;;;;;;;;5030476;28;20739;-69
2021/04/18 15:32:13;;;;;;;6.60;5.90;;;;;;;;;;5030217;28;20206;-69
2021/04/18 15:34:58;;;;;;;8.93;6.73;;;;;;;;;;5030449;28;20237;-69
2021/04/18 15:37:42;;;;;;;63.87;37.50;;;;;;;;;;5031038;28;20720;-69
2021/04/18 15:40:30;;;;;;;49.03;33.40;;;;;;;;;;5033215;28;20401;-68
2021/04/18 15:43:15;;;;;;;158.57;135.00;;;;;;;;;;5034098;28;20288;-68
2021/04/18 15:46:00;;;;;;;18.13;15.07;;;;;;;;;;5033651;28;20209;-68
2021/04/18 15:48:45;;;;;;;11.13;8.20;;;;;;;;;;5034228;28;20689;-68
2021/04/18 15:51:29;;;;;;;23.30;10.83;;;;;;;;;;5034146;28;20206;-69
2021/04/18 15:54:13;;;;;;;16.50;9.23;;;;;;;;;;5033869;28;20229;-69
2021/04/18 15:56:58;;;;;;;15.00;9.60;;;;;;;;;;5033618;28;20248;-69
2021/04/18 15:59:42;;;;;;;9.50;7.13;;;;;;;;;;5029209;28;20210;-69
2021/04/18 16:02:28;;;;;;;8.97;7.00;;;;;;;;;;5033522;28;20281;-68
2021/04/18 16:05:12;;;;;;;10.93;7.83;;;;;;;;;;5033969;28;20349;-68
2021/04/18 16:07:57;;;;;;;14.53;9.80;;;;;;;;;;5031512;28;20283;-68
2021/04/18 16:10:42;;;;;;;8.97;7.90;;;;;;;;;;5015123;28;20261;-68
2021/04/18 16:13:27;;;;;;;10.60;7.33;;;;;;;;;;5027283;28;20229;-69
2021/04/18 16:16:11;;;;;;;8.70;7.80;;;;;;;;;;5013307;28;20210;-69
2021/04/18 16:18:57;;;;;;;10.57;7.70;;;;;;;;;;5014057;28;20254;-69
2021/04/18 16:21:42;;;;;;;8.00;7.30;;;;;;;;;;5013799;28;20591;-69
2021/04/18 16:24:26;;;;;;;11.10;7.87;;;;;;;;;;5021890;28;20306;-69